createdAt,value
2023-09-09T00:00:52.653Z,94.3
2023-09-09T00:01:52.618Z,94
2023-09-09T00:02:52.670Z,94.1
2023-09-09T00:03:52.766Z,94.9
2023-09-09T00:04:52.642Z,94.9
2023-09-09T00:05:52.584Z,94.7
2023-09-09T00:06:52.681Z,94.7
2023-09-09T00:07:52.554Z,95.4
2023-09-09T00:08:52.624Z,95.5
2023-09-09T00:09:52.679Z,95.5
2023-09-09T00:10:52.624Z,95.7
2023-09-09T00:11:52.628Z,95.9
2023-09-09T00:12:52.749Z,96.6
2023-09-09T00:13:52.528Z,97.2
2023-09-09T00:14:52.646Z,96.2
2023-09-09T00:15:52.579Z,95.5
2023-09-09T00:16:52.721Z,96.3
2023-09-09T00:17:52.705Z,96.1
2023-09-09T00:18:52.565Z,96.4
2023-09-09T00:19:52.558Z,96.9
2023-09-09T00:20:52.571Z,97.1
2023-09-09T00:21:52.589Z,97.1
2023-09-09T00:22:52.623Z,97.3
2023-09-09T00:23:52.599Z,98.1
2023-09-09T00:24:52.620Z,97.7
2023-09-09T00:25:52.632Z,97.7
2023-09-09T00:26:52.656Z,98.8
2023-09-09T00:27:52.651Z,98.2
2023-09-09T00:28:52.746Z,97.3
2023-09-09T00:29:52.683Z,97.3
2023-09-09T00:30:52.672Z,98
2023-09-09T00:31:52.625Z,97.7
2023-09-09T00:32:52.600Z,96.6
2023-09-09T00:33:52.602Z,96.5
2023-09-09T00:34:52.599Z,97
2023-09-09T00:35:52.622Z,96.4
2023-09-09T00:36:52.604Z,96
2023-09-09T00:37:52.657Z,95.9
2023-09-09T00:38:52.610Z,96.2
2023-09-09T00:39:52.616Z,96.8
2023-09-09T00:40:52.626Z,96.9
2023-09-09T00:41:52.644Z,97.4
2023-09-09T00:42:52.649Z,97.5
2023-09-09T00:43:52.655Z,99
2023-09-09T00:44:52.672Z,99.1
2023-09-09T00:45:52.720Z,99.8
2023-09-09T00:46:52.687Z,99.2
2023-09-09T00:47:52.626Z,99.1
2023-09-09T00:48:52.582Z,99.2
2023-09-09T00:49:52.736Z,98.9
2023-09-09T00:50:52.689Z,99.7
2023-09-09T00:51:52.608Z,100
2023-09-09T00:52:52.695Z,100
2023-09-09T00:53:52.641Z,100
2023-09-09T00:54:52.692Z,100
2023-09-09T00:55:52.631Z,100
2023-09-09T00:56:52.654Z,100
2023-09-09T00:57:52.674Z,100
2023-09-09T00:58:52.629Z,100
2023-09-09T00:59:52.559Z,100
2023-09-09T01:00:52.542Z,100
2023-09-09T01:01:52.779Z,100
2023-09-09T01:02:53.012Z,100
2023-09-09T01:03:52.784Z,100
2023-09-09T01:04:52.630Z,100
2023-09-09T01:05:52.636Z,100
2023-09-09T01:06:52.702Z,100
2023-09-09T01:07:52.655Z,100
2023-09-09T01:08:52.601Z,100
2023-09-09T01:09:52.643Z,100
2023-09-09T01:10:52.581Z,100
2023-09-09T01:11:52.669Z,100
2023-09-09T01:12:52.581Z,100
2023-09-09T01:13:52.682Z,100
2023-09-09T01:14:52.695Z,100
2023-09-09T01:15:52.593Z,100
2023-09-09T01:16:52.665Z,100
2023-09-09T01:17:52.686Z,100
2023-09-09T01:18:52.673Z,100
2023-09-09T01:19:52.572Z,100
2023-09-09T01:20:52.580Z,100
2023-09-09T01:21:52.779Z,100
2023-09-09T01:22:52.644Z,100
2023-09-09T01:23:52.609Z,100
2023-09-09T01:24:52.642Z,100
2023-09-09T01:25:52.645Z,100
2023-09-09T01:26:52.620Z,100
2023-09-09T01:27:52.635Z,100
2023-09-09T01:28:52.573Z,100
2023-09-09T01:29:52.666Z,100
2023-09-09T01:30:52.584Z,100
2023-09-09T01:31:52.591Z,100
2023-09-09T01:32:52.749Z,100
2023-09-09T01:33:52.685Z,100
2023-09-09T01:34:52.570Z,100
2023-09-09T01:35:52.592Z,100
2023-09-09T01:36:52.555Z,100
2023-09-09T01:37:52.642Z,100
2023-09-09T01:38:52.702Z,100
2023-09-09T01:39:52.641Z,100
2023-09-09T01:40:52.583Z,100
2023-09-09T01:41:52.566Z,100
2023-09-09T01:42:52.671Z,100
2023-09-09T01:43:52.579Z,100
2023-09-09T01:44:52.576Z,100
2023-09-09T01:45:52.685Z,100
2023-09-09T01:46:52.655Z,100
2023-09-09T01:47:52.658Z,100
2023-09-09T01:48:52.583Z,100
2023-09-09T01:49:52.570Z,100
2023-09-09T01:50:52.573Z,100
2023-09-09T01:51:52.644Z,100
2023-09-09T01:52:52.570Z,100
2023-09-09T01:53:52.575Z,100
2023-09-09T01:54:52.718Z,100
2023-09-09T01:55:52.666Z,100
2023-09-09T01:56:52.574Z,100
2023-09-09T01:57:52.693Z,100
2023-09-09T01:58:52.639Z,100
2023-09-09T01:59:52.632Z,100
2023-09-09T02:00:52.639Z,100
2023-09-09T02:01:52.660Z,100
2023-09-09T02:02:52.695Z,100
2023-09-09T02:03:52.837Z,100
2023-09-09T02:04:52.791Z,100
2023-09-09T02:05:52.742Z,100
2023-09-09T02:06:52.593Z,100
2023-09-09T02:07:52.619Z,100
2023-09-09T02:08:52.703Z,100
2023-09-09T02:09:52.629Z,100
2023-09-09T02:10:52.713Z,100
2023-09-09T02:11:52.722Z,100
2023-09-09T02:12:52.576Z,100
2023-09-09T02:15:52.650Z,100
2023-09-09T02:16:52.702Z,100
2023-09-09T02:17:52.681Z,100
2023-09-09T02:18:52.678Z,100
2023-09-09T02:19:52.663Z,100
2023-09-09T02:20:52.680Z,100
2023-09-09T02:21:52.682Z,100
2023-09-09T02:22:52.812Z,100
2023-09-09T02:23:52.602Z,100
2023-09-09T02:24:52.626Z,100
2023-09-09T02:25:52.679Z,100
2023-09-09T02:26:52.641Z,100
2023-09-09T02:27:52.726Z,100
2023-09-09T02:28:52.625Z,100
2023-09-09T02:29:52.640Z,100
2023-09-09T02:30:52.670Z,100
2023-09-09T02:31:52.698Z,100
2023-09-09T02:32:52.789Z,100
2023-09-09T02:33:52.826Z,100
2023-09-09T02:34:52.665Z,100
2023-09-09T02:35:52.723Z,100
2023-09-09T02:36:52.582Z,100
2023-09-09T02:37:52.674Z,100
2023-09-09T02:38:52.580Z,100
2023-09-09T02:39:52.605Z,100
2023-09-09T02:40:52.565Z,100
2023-09-09T02:41:52.587Z,100
2023-09-09T02:42:52.663Z,100
2023-09-09T02:43:52.621Z,100
2023-09-09T02:44:52.606Z,100
2023-09-09T02:45:52.577Z,100
2023-09-09T02:46:52.616Z,100
2023-09-09T02:47:52.593Z,100
2023-09-09T02:48:52.575Z,100
2023-09-09T02:49:53.834Z,100
2023-09-09T02:50:52.635Z,100
2023-09-09T02:51:52.654Z,100
2023-09-09T02:52:52.603Z,100
2023-09-09T02:53:52.572Z,100
2023-09-09T02:54:52.576Z,100
2023-09-09T02:55:52.651Z,100
2023-09-09T02:56:52.581Z,100
2023-09-09T02:57:52.625Z,100
2023-09-09T02:58:52.570Z,100
2023-09-09T02:59:52.666Z,100
2023-09-09T03:00:52.797Z,100
2023-09-09T03:01:52.579Z,100
2023-09-09T03:02:52.714Z,100
2023-09-09T03:03:52.652Z,100
2023-09-09T03:04:52.642Z,100
2023-09-09T03:05:52.593Z,100
2023-09-09T03:06:52.661Z,100
2023-09-09T03:07:52.656Z,100
2023-09-09T03:08:52.656Z,100
2023-09-09T03:09:52.667Z,100
2023-09-09T03:10:52.584Z,100
2023-09-09T03:11:52.618Z,100
2023-09-09T03:12:52.593Z,100
2023-09-09T03:13:52.610Z,100
2023-09-09T03:14:52.585Z,100
2023-09-09T03:15:52.660Z,100
2023-09-09T03:16:52.671Z,100
2023-09-09T03:17:52.635Z,100
2023-09-09T03:18:52.656Z,100
2023-09-09T03:19:52.603Z,100
2023-09-09T03:20:52.675Z,100
2023-09-09T03:21:52.579Z,100
2023-09-09T03:22:52.752Z,100
2023-09-09T03:23:52.661Z,100
2023-09-09T03:24:52.650Z,100
2023-09-09T03:25:52.656Z,100
2023-09-09T03:26:52.651Z,100
2023-09-09T03:27:52.584Z,100
2023-09-09T03:28:52.592Z,100
2023-09-09T03:29:52.718Z,100
2023-09-09T03:30:52.655Z,100
2023-09-09T03:31:52.648Z,100
2023-09-09T03:32:52.692Z,100
2023-09-09T03:33:52.674Z,100
2023-09-09T03:34:52.584Z,100
2023-09-09T03:35:52.596Z,100
2023-09-09T03:36:52.591Z,100
2023-09-09T03:37:52.654Z,100
2023-09-09T03:38:52.649Z,100
2023-09-09T03:39:52.741Z,100
2023-09-09T03:40:52.659Z,100
2023-09-09T03:41:52.592Z,100
2023-09-09T03:42:52.648Z,100
2023-09-09T03:43:52.669Z,100
2023-09-09T03:44:52.597Z,100
2023-09-09T03:45:52.639Z,100
2023-09-09T03:46:52.680Z,100
2023-09-09T03:47:52.704Z,100
2023-09-09T03:48:52.718Z,100
2023-09-09T03:49:52.615Z,100
2023-09-09T03:50:52.584Z,100
2023-09-09T03:51:52.608Z,100
2023-09-09T03:52:52.620Z,100
2023-09-09T03:53:52.610Z,100
2023-09-09T03:54:52.596Z,100
2023-09-09T03:55:52.789Z,100
2023-09-09T03:56:52.644Z,100
2023-09-09T03:57:52.600Z,100
2023-09-09T03:58:52.705Z,100
2023-09-09T03:59:52.598Z,100
2023-09-09T04:00:54.281Z,100
2023-09-09T04:01:52.668Z,100
2023-09-09T04:02:52.658Z,100
2023-09-09T04:03:52.801Z,100
2023-09-09T04:04:52.661Z,100
2023-09-09T04:05:52.617Z,100
2023-09-09T04:06:52.641Z,100
2023-09-09T04:07:52.636Z,100
2023-09-09T04:08:52.596Z,100
2023-09-09T04:09:52.584Z,100
2023-09-09T04:10:52.620Z,100
2023-09-09T04:11:52.596Z,100
2023-09-09T04:12:52.693Z,100
2023-09-09T04:13:52.690Z,100
2023-09-09T04:14:52.632Z,100
2023-09-09T04:15:52.603Z,100
2023-09-09T04:16:52.734Z,100
2023-09-09T04:17:52.695Z,100
2023-09-09T04:18:52.646Z,100
2023-09-09T04:19:52.623Z,100
2023-09-09T04:20:52.665Z,100
2023-09-09T04:21:52.741Z,100
2023-09-09T04:22:52.621Z,100
2023-09-09T04:23:52.629Z,100
2023-09-09T04:24:52.681Z,100
2023-09-09T04:25:52.721Z,100
2023-09-09T04:26:52.700Z,100
2023-09-09T04:27:52.701Z,100
2023-09-09T04:28:52.714Z,100
2023-09-09T04:29:52.725Z,100
2023-09-09T04:30:52.635Z,100
2023-09-09T04:31:52.615Z,100
2023-09-09T04:32:52.741Z,100
2023-09-09T04:33:52.623Z,100
2023-09-09T04:34:52.609Z,100
2023-09-09T04:35:52.598Z,100
2023-09-09T04:36:52.754Z,100
2023-09-09T04:37:52.687Z,100
2023-09-09T04:38:52.691Z,100
2023-09-09T04:39:52.697Z,100
2023-09-09T04:40:52.694Z,100
2023-09-09T04:41:52.708Z,100
2023-09-09T04:42:52.701Z,100
2023-09-09T04:43:52.716Z,100
2023-09-09T04:44:52.714Z,100
2023-09-09T04:45:52.768Z,100
2023-09-09T04:46:52.629Z,100
2023-09-09T04:47:52.696Z,100
2023-09-09T04:48:52.623Z,100
2023-09-09T04:49:52.645Z,100
2023-09-09T04:50:52.615Z,100
2023-09-09T04:51:52.664Z,100
2023-09-09T04:52:52.690Z,100
2023-09-09T04:53:52.659Z,100
2023-09-09T04:54:52.690Z,100
2023-09-09T04:55:52.713Z,100
2023-09-09T04:56:52.704Z,100
2023-09-09T04:57:52.718Z,100
2023-09-09T04:58:52.626Z,100
2023-09-09T04:59:52.612Z,100
2023-09-09T05:00:52.672Z,100
2023-09-09T05:01:52.729Z,100
2023-09-09T05:02:52.694Z,100
2023-09-09T05:03:52.639Z,100
2023-09-09T05:04:52.698Z,100
2023-09-09T05:05:52.649Z,100
2023-09-09T05:06:52.655Z,100
2023-09-09T05:07:52.668Z,100
2023-09-09T05:08:52.793Z,100
2023-09-09T05:09:52.733Z,100
2023-09-09T05:10:52.709Z,100
2023-09-09T05:11:52.693Z,100
2023-09-09T05:12:52.714Z,100
2023-09-09T05:13:52.621Z,100
2023-09-09T05:14:52.639Z,100
2023-09-09T05:15:52.612Z,100
2023-09-09T05:16:52.661Z,100
2023-09-09T05:17:52.751Z,100
2023-09-09T05:18:52.642Z,100
2023-09-09T05:19:52.676Z,100
2023-09-09T05:20:52.662Z,100
2023-09-09T05:21:52.652Z,100
2023-09-09T05:22:52.682Z,100
2023-09-09T05:23:52.663Z,100
2023-09-09T05:24:52.690Z,100
2023-09-09T05:25:52.787Z,100
2023-09-09T05:26:52.625Z,100
2023-09-09T05:27:52.697Z,100
2023-09-09T05:28:52.606Z,100
2023-09-09T05:29:52.664Z,100
2023-09-09T05:30:52.721Z,100
2023-09-09T05:31:52.730Z,100
2023-09-09T05:32:52.784Z,100
2023-09-09T05:33:52.835Z,100
2023-09-09T05:34:52.644Z,100
2023-09-09T05:35:52.638Z,100
2023-09-09T05:36:52.634Z,100
2023-09-09T05:37:52.661Z,100
2023-09-09T05:38:52.609Z,100
2023-09-09T05:39:52.676Z,100
2023-09-09T05:40:52.710Z,100
2023-09-09T05:41:52.669Z,100
2023-09-09T05:42:52.715Z,100
2023-09-09T05:43:52.705Z,100
2023-09-09T05:44:52.707Z,100
2023-09-09T05:45:52.797Z,100
2023-09-09T05:46:52.812Z,100
2023-09-09T05:47:52.792Z,100
2023-09-09T05:48:52.741Z,100
2023-09-09T05:49:52.774Z,100
2023-09-09T05:50:52.648Z,100
2023-09-09T05:51:52.649Z,100
2023-09-09T05:52:55.100Z,100
2023-09-09T05:53:52.795Z,100
2023-09-09T05:54:52.678Z,100
2023-09-09T05:55:52.694Z,100
2023-09-09T05:56:52.631Z,100
2023-09-09T05:57:52.789Z,100
2023-09-09T05:58:52.653Z,100
2023-09-09T05:59:52.745Z,100
2023-09-09T06:00:52.717Z,100
2023-09-09T06:01:52.790Z,100
2023-09-09T06:02:52.662Z,100
2023-09-09T06:03:52.768Z,100
2023-09-09T06:04:52.806Z,100
2023-09-09T06:05:52.784Z,100
2023-09-09T06:06:52.747Z,100
2023-09-09T06:07:52.683Z,100
2023-09-09T06:08:52.615Z,100
2023-09-09T06:09:52.618Z,100
2023-09-09T06:10:52.662Z,100
2023-09-09T06:11:52.708Z,100
2023-09-09T06:12:52.646Z,100
2023-09-09T06:13:52.674Z,100
2023-09-09T06:14:52.714Z,100
2023-09-09T06:15:52.746Z,100
2023-09-09T06:16:52.718Z,100
2023-09-09T06:17:52.749Z,100
2023-09-09T06:18:52.756Z,100
2023-09-09T06:19:52.744Z,100
2023-09-09T06:20:52.644Z,100
2023-09-09T06:21:52.748Z,100
2023-09-09T06:22:52.785Z,100
2023-09-09T06:23:52.628Z,100
2023-09-09T06:24:52.663Z,100
2023-09-09T06:25:52.620Z,100
2023-09-09T06:26:52.640Z,100
2023-09-09T06:27:52.733Z,100
2023-09-09T06:28:52.749Z,100
2023-09-09T06:29:52.735Z,100
2023-09-09T06:30:52.749Z,100
2023-09-09T06:31:52.721Z,100
2023-09-09T06:32:52.737Z,100
2023-09-09T06:33:52.724Z,100
2023-09-09T06:34:52.687Z,100
2023-09-09T06:35:52.649Z,100
2023-09-09T06:36:52.666Z,100
2023-09-09T06:37:52.623Z,100
2023-09-09T06:38:52.786Z,100
2023-09-09T06:39:52.666Z,100
2023-09-09T06:40:52.671Z,100
2023-09-09T06:41:52.659Z,100
2023-09-09T06:42:52.674Z,100
2023-09-09T06:43:52.717Z,100
2023-09-09T06:44:52.695Z,100
2023-09-09T06:45:52.726Z,100
2023-09-09T06:46:52.703Z,100
2023-09-09T06:47:52.846Z,100
2023-09-09T06:48:52.645Z,100
2023-09-09T06:49:52.619Z,100
2023-09-09T06:50:52.742Z,100
2023-09-09T06:51:52.651Z,100
2023-09-09T06:52:52.747Z,100
2023-09-09T06:53:52.719Z,100
2023-09-09T06:54:52.766Z,100
2023-09-09T06:55:52.790Z,100
2023-09-09T06:56:52.679Z,100
2023-09-09T06:57:52.665Z,100
2023-09-09T06:58:52.623Z,100
2023-09-09T06:59:52.628Z,100
2023-09-09T07:00:52.676Z,100
2023-09-09T07:01:52.644Z,100
2023-09-09T07:02:52.726Z,100
2023-09-09T07:03:52.782Z,100
2023-09-09T07:04:52.687Z,100
2023-09-09T07:05:52.755Z,100
2023-09-09T07:07:09.731Z,100
2023-09-09T07:07:52.656Z,100
2023-09-09T07:08:52.769Z,100
2023-09-09T07:09:52.658Z,100
2023-09-09T07:10:52.768Z,100
2023-09-09T07:11:52.699Z,99.6
2023-09-09T07:12:52.635Z,99.8
2023-09-09T07:13:52.680Z,97.4
2023-09-09T07:14:52.762Z,97.2
2023-09-09T07:15:52.777Z,97.6
2023-09-09T07:16:52.647Z,98.2
2023-09-09T07:17:52.708Z,96.6
2023-09-09T07:18:52.748Z,95.3
2023-09-09T07:19:52.684Z,95
2023-09-09T07:20:52.639Z,94.2
2023-09-09T07:21:52.752Z,95.7
2023-09-09T07:22:52.629Z,95.2
2023-09-09T07:23:52.631Z,96
2023-09-09T07:24:52.713Z,97.6
2023-09-09T07:25:52.734Z,97.3
2023-09-09T07:26:52.871Z,99.8
2023-09-09T07:27:52.805Z,99
2023-09-09T07:28:52.698Z,97.8
2023-09-09T07:29:52.857Z,97.6
2023-09-09T07:30:52.731Z,96.4
2023-09-09T07:31:52.808Z,95.1
2023-09-09T07:32:52.776Z,93
2023-09-09T07:33:52.804Z,92.7
2023-09-09T07:34:52.787Z,94.4
2023-09-09T07:35:52.880Z,93.8
2023-09-09T07:36:52.725Z,95
2023-09-09T07:37:52.758Z,94.4
2023-09-09T07:38:52.770Z,95.4
2023-09-09T07:39:52.849Z,97.6
2023-09-09T07:40:52.868Z,94.8
2023-09-09T07:41:52.813Z,94.7
2023-09-09T07:42:53.778Z,94.2
2023-09-09T07:43:52.751Z,94.1
2023-09-09T07:44:52.680Z,94.5
2023-09-09T07:45:52.779Z,93.6
2023-09-09T07:46:52.726Z,92.6
2023-09-09T07:47:52.755Z,93.3
2023-09-09T07:48:52.823Z,93.3
2023-09-09T07:49:52.638Z,92.1
2023-09-09T07:50:52.785Z,91.8
2023-09-09T07:51:52.837Z,93.2
2023-09-09T07:52:52.744Z,93.4
2023-09-09T07:53:52.796Z,97.8
2023-09-09T07:54:52.768Z,98.9
2023-09-09T07:55:52.665Z,95.9
2023-09-09T07:56:52.663Z,97.3
2023-09-09T07:57:52.656Z,98.9
2023-09-09T07:58:52.925Z,96.7
2023-09-09T07:59:52.734Z,95.9
2023-09-09T08:00:52.673Z,94
2023-09-09T08:01:52.694Z,93.7
2023-09-09T08:02:52.770Z,93.1
2023-09-09T08:03:52.842Z,92.5
2023-09-09T08:04:52.748Z,92.8
2023-09-09T08:05:53.229Z,93
2023-09-09T08:06:52.651Z,92.6
2023-09-09T08:07:52.745Z,92.9
2023-09-09T08:08:52.752Z,93
2023-09-09T08:09:52.712Z,92.6
2023-09-09T08:10:52.676Z,92.4
2023-09-09T08:11:52.679Z,92.1
2023-09-09T08:12:52.729Z,92
2023-09-09T08:13:52.670Z,91
2023-09-09T08:14:52.687Z,91.8
2023-09-09T08:15:52.911Z,89.5
2023-09-09T08:16:52.813Z,88.6
2023-09-09T08:17:52.749Z,89.1
2023-09-09T08:18:52.723Z,88.9
2023-09-09T08:19:52.662Z,89.4
2023-09-09T08:20:52.775Z,91.2
2023-09-09T08:21:52.741Z,92
2023-09-09T08:22:52.735Z,92.2
2023-09-09T08:23:52.751Z,92.4
2023-09-09T08:24:52.691Z,93.6
2023-09-09T08:25:52.766Z,91.9
2023-09-09T08:26:52.765Z,89.2
2023-09-09T08:27:52.656Z,88
2023-09-09T08:28:52.689Z,88.5
2023-09-09T08:29:52.676Z,87.2
2023-09-09T08:30:52.749Z,87.3
2023-09-09T08:31:52.837Z,89.8
2023-09-09T08:32:52.810Z,87.8
2023-09-09T08:33:52.717Z,90.3
2023-09-09T08:34:52.727Z,89.3
2023-09-09T08:35:52.668Z,90.5
2023-09-09T08:36:52.726Z,90.8
2023-09-09T08:37:52.743Z,89.8
2023-09-09T08:38:52.801Z,88.9
2023-09-09T08:39:52.793Z,89.6
2023-09-09T08:40:52.820Z,89.2
2023-09-09T08:41:52.801Z,89
2023-09-09T08:42:52.657Z,87.7
2023-09-09T08:43:52.674Z,87.7
2023-09-09T08:44:52.728Z,86.3
2023-09-09T08:45:52.677Z,86.3
2023-09-09T08:46:52.650Z,86.5
2023-09-09T08:47:52.860Z,90
2023-09-09T08:48:53.075Z,87.4
2023-09-09T08:49:52.652Z,87.3
2023-09-09T08:50:52.734Z,85.3
2023-09-09T08:51:52.659Z,82.5
2023-09-09T08:52:52.661Z,84.1
2023-09-09T08:53:52.685Z,84.3
2023-09-09T08:54:52.707Z,84.2
2023-09-09T08:55:52.720Z,84.5
2023-09-09T08:56:52.774Z,86.6
2023-09-09T08:57:52.812Z,84.8
2023-09-09T08:58:52.699Z,83.1
2023-09-09T08:59:52.685Z,84.8
2023-09-09T09:00:52.798Z,84.2
2023-09-09T09:01:52.764Z,81.4
2023-09-09T09:02:52.752Z,83
2023-09-09T09:03:52.892Z,82.7
2023-09-09T09:04:52.720Z,82.2
2023-09-09T09:05:52.714Z,82.1
2023-09-09T09:06:52.760Z,81.2
2023-09-09T09:07:52.758Z,81.8
2023-09-09T09:08:52.747Z,81.8
2023-09-09T09:09:52.740Z,81.7
2023-09-09T09:10:52.785Z,80
2023-09-09T09:11:52.775Z,80.9
2023-09-09T09:12:52.758Z,78.9
2023-09-09T09:13:52.802Z,79.4
2023-09-09T09:14:52.668Z,79.5
2023-09-09T09:15:52.682Z,78.5
2023-09-09T09:16:52.687Z,76.4
2023-09-09T09:17:52.745Z,74.7
2023-09-09T09:18:52.667Z,72.8
2023-09-09T09:19:52.710Z,73.6
2023-09-09T09:20:52.763Z,75.8
2023-09-09T09:21:52.716Z,72.8
2023-09-09T09:22:52.716Z,73.4
2023-09-09T09:23:52.728Z,74.5
2023-09-09T09:24:52.741Z,75.5
2023-09-09T09:25:52.747Z,75.9
2023-09-09T09:26:52.763Z,78
2023-09-09T09:27:52.757Z,78.8
2023-09-09T09:28:52.780Z,79
2023-09-09T09:29:52.740Z,76.4
2023-09-09T09:30:52.704Z,76.3
2023-09-09T09:31:52.704Z,76.3
2023-09-09T09:32:52.749Z,76.6
2023-09-09T09:33:52.719Z,74.5
2023-09-09T09:34:52.819Z,75.7
2023-09-09T09:35:52.695Z,77.6
2023-09-09T09:36:52.826Z,78.7
2023-09-09T09:37:52.764Z,76.5
2023-09-09T09:38:52.735Z,76.1
2023-09-09T09:39:52.737Z,73.8
2023-09-09T09:40:52.759Z,72.4
2023-09-09T09:41:52.751Z,73.2
2023-09-09T09:42:52.736Z,75.2
2023-09-09T09:43:52.772Z,75.2
2023-09-09T09:44:52.771Z,75
2023-09-09T09:45:52.729Z,78.7
2023-09-09T09:46:52.825Z,78.4
2023-09-09T09:47:52.837Z,77
2023-09-09T09:48:52.699Z,78.7
2023-09-09T09:49:52.703Z,79.7
2023-09-09T09:50:52.721Z,79.2
2023-09-09T09:51:52.767Z,77.9
2023-09-09T09:52:52.829Z,78.9
2023-09-09T09:53:52.731Z,77.9
2023-09-09T09:54:52.685Z,76.8
2023-09-09T09:55:52.748Z,76.6
2023-09-09T09:56:52.749Z,75.7
2023-09-09T09:57:54.356Z,77.4
2023-09-09T09:58:52.736Z,76
2023-09-09T09:59:52.771Z,75
2023-09-09T10:00:52.806Z,77.8
2023-09-09T10:01:52.802Z,79.2
2023-09-09T10:02:52.866Z,80.1
2023-09-09T10:03:52.838Z,77.5
2023-09-09T10:04:52.695Z,74.7
2023-09-09T10:05:52.695Z,75.9
2023-09-09T10:06:52.745Z,75.7
2023-09-09T10:07:52.681Z,75.5
2023-09-09T10:08:52.680Z,75.6
2023-09-09T10:09:52.784Z,73.5
2023-09-09T10:10:52.787Z,72.5
2023-09-09T10:11:52.698Z,71.4
2023-09-09T10:12:52.775Z,71.4
2023-09-09T10:13:52.756Z,72
2023-09-09T10:14:52.742Z,72.3
2023-09-09T10:15:52.751Z,72.7
2023-09-09T10:16:52.787Z,72.8
2023-09-09T10:17:52.807Z,72.1
2023-09-09T10:18:52.685Z,72.8
2023-09-09T10:19:52.736Z,72.6
2023-09-09T10:20:52.761Z,73.2
2023-09-09T10:21:52.751Z,75.4
2023-09-09T10:22:52.814Z,73.7
2023-09-09T10:23:52.763Z,73.8
2023-09-09T10:24:52.687Z,73
2023-09-09T10:25:52.786Z,74.1
2023-09-09T10:26:52.781Z,74.1
2023-09-09T10:27:52.732Z,74.6
2023-09-09T10:28:52.722Z,72.9
2023-09-09T10:29:52.714Z,72.2
2023-09-09T10:30:52.746Z,71.3
2023-09-09T10:31:52.719Z,72.6
2023-09-09T10:32:52.731Z,73
2023-09-09T10:33:52.764Z,70.3
2023-09-09T10:34:52.793Z,70.5
2023-09-09T10:35:52.833Z,71.2
2023-09-09T10:37:01.635Z,72.2
2023-09-09T10:37:52.693Z,71
2023-09-09T10:38:52.707Z,70
2023-09-09T10:39:52.739Z,70.9
2023-09-09T10:40:52.778Z,72.3
2023-09-09T10:41:52.751Z,70.4
2023-09-09T10:42:52.788Z,71.5
2023-09-09T10:43:52.794Z,71.3
2023-09-09T10:44:52.700Z,72.7
2023-09-09T10:45:52.748Z,72
2023-09-09T10:46:52.709Z,71.4
2023-09-09T10:47:52.772Z,71.4
2023-09-09T10:48:52.685Z,71.8
2023-09-09T10:49:53.224Z,72.2
2023-09-09T10:50:53.819Z,74.4
2023-09-09T10:51:52.989Z,72.7
2023-09-09T10:52:56.115Z,71.7
2023-09-09T10:53:52.742Z,70.4
2023-09-09T10:54:52.707Z,68.6
2023-09-09T10:55:52.829Z,68.5
2023-09-09T10:56:52.941Z,69.1
2023-09-09T10:57:52.967Z,69.4
2023-09-09T10:58:52.787Z,69.3
2023-09-09T10:59:52.960Z,70.2
2023-09-09T11:00:52.880Z,70.7
2023-09-09T11:01:53.165Z,70.6
2023-09-09T11:02:52.740Z,69.4
2023-09-09T11:03:52.744Z,69.1
2023-09-09T11:04:52.897Z,71.3
2023-09-09T11:05:52.782Z,70.8
2023-09-09T11:06:52.848Z,70.6
2023-09-09T11:07:52.725Z,70.2
2023-09-09T11:08:52.753Z,71.2
2023-09-09T11:09:52.867Z,70.7
2023-09-09T11:10:52.779Z,69.5
2023-09-09T11:11:55.244Z,69.6
2023-09-09T11:12:52.772Z,70.2
2023-09-09T11:13:52.708Z,69.2
2023-09-09T11:14:52.805Z,68.7
2023-09-09T11:15:52.740Z,70.6
2023-09-09T11:16:52.828Z,70.1
2023-09-09T11:17:52.761Z,69.2
2023-09-09T11:18:52.829Z,69.8
2023-09-09T11:19:52.765Z,68.8
2023-09-09T11:20:52.725Z,68.4
2023-09-09T11:21:52.751Z,67.7
2023-09-09T11:22:52.848Z,67.4
2023-09-09T11:23:52.835Z,68.7
2023-09-09T11:24:52.753Z,68
2023-09-09T11:25:52.752Z,67.5
2023-09-09T11:26:52.756Z,68.2
2023-09-09T11:27:52.818Z,68
2023-09-09T11:28:52.888Z,66.6
2023-09-09T11:29:52.707Z,67
2023-09-09T11:30:52.788Z,68.8
2023-09-09T11:31:52.807Z,66.3
2023-09-09T11:32:52.776Z,67
2023-09-09T11:33:52.815Z,66.7
2023-09-09T11:34:52.835Z,67.8
2023-09-09T11:35:52.717Z,64.9
2023-09-09T11:36:52.848Z,65.1
2023-09-09T11:37:52.739Z,65.3
2023-09-09T11:38:52.849Z,65.2
2023-09-09T11:39:52.748Z,63.9
2023-09-09T11:40:52.753Z,64.7
2023-09-09T11:41:52.760Z,63
2023-09-09T11:42:52.763Z,62.1
2023-09-09T11:43:52.781Z,61.8
2023-09-09T11:44:52.811Z,62.9
2023-09-09T11:45:52.789Z,62.7
2023-09-09T11:46:52.819Z,61.8
2023-09-09T11:47:52.816Z,59
2023-09-09T11:48:52.844Z,58.6
2023-09-09T11:49:52.814Z,58.9
2023-09-09T11:50:52.728Z,57.6
2023-09-09T11:51:52.842Z,57.6
2023-09-09T11:52:52.876Z,56.4
2023-09-09T11:53:52.734Z,56.3
2023-09-09T11:54:52.859Z,58.3
2023-09-09T11:55:52.849Z,55.4
2023-09-09T11:56:52.763Z,55.7
2023-09-09T11:57:52.771Z,55
2023-09-09T11:58:52.722Z,54
2023-09-09T11:59:54.476Z,54.6
2023-09-09T12:00:52.790Z,53.1
2023-09-09T12:01:52.851Z,53.6
2023-09-09T12:02:52.812Z,52.7
2023-09-09T12:03:52.833Z,51.1
2023-09-09T12:04:52.820Z,51.6
2023-09-09T12:05:52.827Z,50.9
2023-09-09T12:06:52.836Z,49.5
2023-09-09T12:07:52.884Z,48.7
2023-09-09T12:08:52.735Z,50.3
2023-09-09T12:09:52.752Z,49.5
2023-09-09T12:10:52.859Z,49.9
2023-09-09T12:11:52.871Z,50.9
2023-09-09T12:12:52.754Z,48.8
2023-09-09T12:13:52.787Z,49.3
2023-09-09T12:14:52.779Z,48.6
2023-09-09T12:16:00.501Z,49.3
2023-09-09T12:16:52.810Z,48.6
2023-09-09T12:17:52.856Z,48.4
2023-09-09T12:18:52.905Z,47.9
2023-09-09T12:19:52.800Z,47.4
2023-09-09T12:20:52.744Z,47.8
2023-09-09T12:21:52.816Z,48.6
2023-09-09T12:22:52.734Z,47.3
2023-09-09T12:23:52.768Z,47.9
2023-09-09T12:24:52.751Z,47.1
2023-09-09T12:25:52.726Z,46.3
2023-09-09T12:26:52.817Z,46
2023-09-09T12:27:52.794Z,45.7
2023-09-09T12:28:54.013Z,45.3
2023-09-09T12:29:52.742Z,45.5
2023-09-09T12:30:52.756Z,45.4
2023-09-09T12:31:52.922Z,45.3
2023-09-09T12:32:52.740Z,45.6
2023-09-09T12:33:52.762Z,45.7
2023-09-09T12:34:52.727Z,45
2023-09-09T12:35:52.813Z,46.6
2023-09-09T12:36:52.768Z,45.3
2023-09-09T12:37:52.770Z,43.2
2023-09-09T12:38:52.750Z,42.3
2023-09-09T12:39:52.742Z,43.4
2023-09-09T12:40:52.737Z,42.1
2023-09-09T12:41:52.746Z,41.8
2023-09-09T12:42:52.739Z,43.4
2023-09-09T12:43:52.921Z,42.3
2023-09-09T12:44:52.781Z,41.3
2023-09-09T12:45:52.833Z,41.4
2023-09-09T12:46:52.857Z,41.5
2023-09-09T12:47:52.923Z,40.6
2023-09-09T12:48:52.789Z,41
2023-09-09T12:49:52.898Z,40.8
2023-09-09T12:50:52.750Z,39.5
2023-09-09T12:51:52.858Z,42.3
2023-09-09T12:52:52.785Z,42.8
2023-09-09T12:53:52.842Z,42.1
2023-09-09T12:54:52.742Z,40.5
2023-09-09T12:55:52.745Z,39.4
2023-09-09T12:56:52.769Z,39.5
2023-09-09T12:57:52.773Z,39.6
2023-09-09T12:58:52.761Z,40
2023-09-09T12:59:52.865Z,40
2023-09-09T13:00:52.868Z,39.7
2023-09-09T13:01:54.886Z,40.1
2023-09-09T13:02:52.836Z,39.2
2023-09-09T13:03:52.844Z,40.3
2023-09-09T13:04:52.744Z,40.7
2023-09-09T13:05:52.886Z,41.1
2023-09-09T13:06:52.826Z,40.9
2023-09-09T13:07:52.828Z,39.9
2023-09-09T13:08:52.819Z,38.5
2023-09-09T13:09:52.829Z,38.3
2023-09-09T13:10:52.844Z,38.5
2023-09-09T13:11:52.879Z,38.1
2023-09-09T13:12:52.854Z,38.1
2023-09-09T13:14:01.520Z,36.8
2023-09-09T13:14:52.865Z,37.6
2023-09-09T13:15:52.912Z,36.3
2023-09-09T13:16:52.870Z,35.5
2023-09-09T13:17:52.844Z,35.2
2023-09-09T13:18:52.775Z,34.2
2023-09-09T13:19:52.772Z,32.7
2023-09-09T13:20:52.761Z,32.2
2023-09-09T13:21:52.926Z,31.6
2023-09-09T13:22:52.829Z,31.5
2023-09-09T13:23:52.909Z,32.7
2023-09-09T13:24:54.024Z,31.9
2023-09-09T13:25:52.811Z,32.4
2023-09-09T13:26:52.811Z,33.4
2023-09-09T13:27:52.837Z,33.7
2023-09-09T13:28:52.849Z,32.6
2023-09-09T13:29:52.753Z,31.6
2023-09-09T13:30:52.838Z,32.3
2023-09-09T13:31:52.911Z,32.7
2023-09-09T13:32:53.022Z,33.5
2023-09-09T13:33:52.907Z,33.4
2023-09-09T13:34:52.796Z,34.3
2023-09-09T13:35:52.773Z,34.6
2023-09-09T13:36:52.803Z,32.9